Terminal Aerodrome Forecast
Issued by NWS

Home | Current Version | Previous Version | Text Only | Print | Product List | Glossary On
Versions: 1 2 3 4 5 6 7 8 9 10 11 12 13 14 15 16 17 18 19
000
FTUS41 KILN 311100
TAFLUK
TAF
KLUK 311136Z 3112/0112 VRB03KT P6SM SKC
     FM311500 24007KT P6SM SCT040
     FM010000 VRB03KT P6SM SKC
     FM010700 00000KT 2SM BR SKC
     FM010900 00000KT 1/2SM FG VV002=

USA.gov is the U.S. government's official web portal to all federal, state and local government web resources and services.